sensor_id;sensor_type;location;lat;lon;timestamp;P1;durP1;ratioP1;P2;durP2;ratioP2
9950;SDS011;24074;49.254;6.702;2023-08-31T00:01:11;5.67;;;3.73;;
9950;SDS011;24074;49.254;6.702;2023-08-31T00:03:36;4.97;;;3.47;;
9950;SDS011;24074;49.254;6.702;2023-08-31T00:06:02;6.10;;;3.40;;
9950;SDS011;24074;49.254;6.702;2023-08-31T00:08:29;8.03;;;4.10;;
9950;SDS011;24074;49.254;6.702;2023-08-31T00:10:58;6.43;;;3.90;;
9950;SDS011;24074;49.254;6.702;2023-08-31T00:13:27;6.60;;;3.93;;
9950;SDS011;24074;49.254;6.702;2023-08-31T00:15:54;6.20;;;3.80;;
9950;SDS011;24074;49.254;6.702;2023-08-31T00:18:23;5.13;;;3.77;;
9950;SDS011;24074;49.254;6.702;2023-08-31T00:20:50;7.50;;;4.07;;
9950;SDS011;24074;49.254;6.702;2023-08-31T00:23:16;6.43;;;3.90;;
9950;SDS011;24074;49.254;6.702;2023-08-31T00:25:41;6.57;;;3.63;;
9950;SDS011;24074;49.254;6.702;2023-08-31T00:28:08;5.63;;;3.90;;
9950;SDS011;24074;49.254;6.702;2023-08-31T00:30:34;5.73;;;3.57;;
9950;SDS011;24074;49.254;6.702;2023-08-31T00:33:00;6.90;;;4.03;;
9950;SDS011;24074;49.254;6.702;2023-08-31T00:35:26;6.03;;;3.50;;
9950;SDS011;24074;49.254;6.702;2023-08-31T00:37:52;6.60;;;3.17;;
9950;SDS011;24074;49.254;6.702;2023-08-31T00:40:24;4.67;;;3.67;;
9950;SDS011;24074;49.254;6.702;2023-08-31T00:42:49;4.60;;;3.70;;
9950;SDS011;24074;49.254;6.702;2023-08-31T00:45:16;4.70;;;3.53;;
9950;SDS011;24074;49.254;6.702;2023-08-31T00:47:42;5.60;;;3.70;;
9950;SDS011;24074;49.254;6.702;2023-08-31T00:50:08;8.33;;;4.33;;
9950;SDS011;24074;49.254;6.702;2023-08-31T00:52:35;8.23;;;3.93;;
9950;SDS011;24074;49.254;6.702;2023-08-31T00:55:01;6.20;;;3.93;;
9950;SDS011;24074;49.254;6.702;2023-08-31T00:57:30;5.37;;;3.57;;
9950;SDS011;24074;49.254;6.702;2023-08-31T00:59:56;7.33;;;3.67;;
9950;SDS011;24074;49.254;6.702;2023-08-31T01:05:11;4.53;;;3.13;;
9950;SDS011;24074;49.254;6.702;2023-08-31T01:07:53;6.47;;;3.60;;
9950;SDS011;24074;49.254;6.702;2023-08-31T01:13:19;5.90;;;3.57;;
9950;SDS011;24074;49.254;6.702;2023-08-31T01:15:50;4.57;;;3.33;;
9950;SDS011;24074;49.254;6.702;2023-08-31T01:18:20;7.43;;;3.60;;
9950;SDS011;24074;49.254;6.702;2023-08-31T01:20:58;4.07;;;3.20;;
9950;SDS011;24074;49.254;6.702;2023-08-31T01:23:55;4.13;;;3.10;;
9950;SDS011;24074;49.254;6.702;2023-08-31T01:26:23;4.97;;;3.57;;
9950;SDS011;24074;49.254;6.702;2023-08-31T01:28:50;5.57;;;3.40;;
9950;SDS011;24074;49.254;6.702;2023-08-31T01:31:16;6.53;;;3.47;;
9950;SDS011;24074;49.254;6.702;2023-08-31T01:33:42;4.73;;;3.20;;
9950;SDS011;24074;49.254;6.702;2023-08-31T01:36:12;6.90;;;3.40;;
9950;SDS011;24074;49.254;6.702;2023-08-31T01:39:19;5.17;;;3.30;;
9950;SDS011;24074;49.254;6.702;2023-08-31T01:41:51;6.23;;;3.47;;
9950;SDS011;24074;49.254;6.702;2023-08-31T01:44:20;6.13;;;3.67;;
9950;SDS011;24074;49.254;6.702;2023-08-31T01:46:51;5.83;;;3.27;;
9950;SDS011;24074;49.254;6.702;2023-08-31T01:49:19;4.03;;;3.17;;
9950;SDS011;24074;49.254;6.702;2023-08-31T01:51:45;5.47;;;3.17;;
9950;SDS011;24074;49.254;6.702;2023-08-31T01:54:11;5.93;;;3.47;;
9950;SDS011;24074;49.254;6.702;2023-08-31T01:56:37;5.90;;;3.20;;
9950;SDS011;24074;49.254;6.702;2023-08-31T01:59:02;5.37;;;3.10;;
9950;SDS011;24074;49.254;6.702;2023-08-31T02:01:28;8.43;;;3.13;;
9950;SDS011;24074;49.254;6.702;2023-08-31T02:03:54;4.43;;;3.00;;
9950;SDS011;24074;49.254;6.702;2023-08-31T02:06:20;9.90;;;3.43;;
9950;SDS011;24074;49.254;6.702;2023-08-31T02:08:45;6.23;;;3.23;;
9950;SDS011;24074;49.254;6.702;2023-08-31T02:11:12;5.93;;;3.27;;
9950;SDS011;24074;49.254;6.702;2023-08-31T02:13:38;9.27;;;3.37;;
9950;SDS011;24074;49.254;6.702;2023-08-31T02:16:04;5.37;;;3.50;;
9950;SDS011;24074;49.254;6.702;2023-08-31T02:18:30;4.57;;;3.20;;
9950;SDS011;24074;49.254;6.702;2023-08-31T02:20:55;3.17;;;2.87;;
9950;SDS011;24074;49.254;6.702;2023-08-31T02:23:22;5.73;;;3.27;;
9950;SDS011;24074;49.254;6.702;2023-08-31T02:25:48;4.47;;;3.17;;
9950;SDS011;24074;49.254;6.702;2023-08-31T02:28:13;6.43;;;3.57;;
9950;SDS011;24074;49.254;6.702;2023-08-31T02:30:39;4.27;;;2.97;;
9950;SDS011;24074;49.254;6.702;2023-08-31T02:33:04;3.83;;;2.90;;
9950;SDS011;24074;49.254;6.702;2023-08-31T02:35:30;4.43;;;3.07;;
9950;SDS011;24074;49.254;6.702;2023-08-31T02:37:55;10.10;;;3.03;;
9950;SDS011;24074;49.254;6.702;2023-08-31T02:40:21;7.90;;;3.33;;
9950;SDS011;24074;49.254;6.702;2023-08-31T02:42:50;6.07;;;3.07;;
9950;SDS011;24074;49.254;6.702;2023-08-31T02:45:16;5.10;;;2.97;;
9950;SDS011;24074;49.254;6.702;2023-08-31T02:47:42;8.03;;;3.20;;
9950;SDS011;24074;49.254;6.702;2023-08-31T02:50:08;7.57;;;3.40;;
9950;SDS011;24074;49.254;6.702;2023-08-31T02:52:34;4.23;;;3.00;;
9950;SDS011;24074;49.254;6.702;2023-08-31T02:54:59;6.40;;;3.43;;
9950;SDS011;24074;49.254;6.702;2023-08-31T02:57:25;5.10;;;3.10;;
9950;SDS011;24074;49.254;6.702;2023-08-31T02:59:51;7.93;;;3.13;;
9950;SDS011;24074;49.254;6.702;2023-08-31T03:02:16;4.77;;;3.10;;
9950;SDS011;24074;49.254;6.702;2023-08-31T03:04:42;5.73;;;2.70;;
9950;SDS011;24074;49.254;6.702;2023-08-31T03:07:07;4.27;;;3.17;;
9950;SDS011;24074;49.254;6.702;2023-08-31T03:09:33;5.97;;;3.13;;
9950;SDS011;24074;49.254;6.702;2023-08-31T03:11:59;3.63;;;2.73;;
9950;SDS011;24074;49.254;6.702;2023-08-31T03:14:24;4.67;;;2.93;;
9950;SDS011;24074;49.254;6.702;2023-08-31T03:16:50;5.43;;;3.07;;
9950;SDS011;24074;49.254;6.702;2023-08-31T03:19:16;5.03;;;3.33;;
9950;SDS011;24074;49.254;6.702;2023-08-31T03:21:42;6.80;;;3.50;;
9950;SDS011;24074;49.254;6.702;2023-08-31T03:24:07;6.10;;;3.40;;
9950;SDS011;24074;49.254;6.702;2023-08-31T03:26:33;4.47;;;3.10;;
9950;SDS011;24074;49.254;6.702;2023-08-31T03:28:59;6.13;;;3.30;;
9950;SDS011;24074;49.254;6.702;2023-08-31T03:31:25;4.93;;;2.90;;
9950;SDS011;24074;49.254;6.702;2023-08-31T03:33:51;6.17;;;2.80;;
9950;SDS011;24074;49.254;6.702;2023-08-31T03:36:16;4.40;;;2.87;;
9950;SDS011;24074;49.254;6.702;2023-08-31T03:38:42;3.70;;;2.60;;
9950;SDS011;24074;49.254;6.702;2023-08-31T03:41:07;5.97;;;2.63;;
9950;SDS011;24074;49.254;6.702;2023-08-31T03:43:36;5.07;;;2.70;;
9950;SDS011;24074;49.254;6.702;2023-08-31T03:46:02;4.27;;;2.87;;
9950;SDS011;24074;49.254;6.702;2023-08-31T03:48:27;4.57;;;2.40;;
9950;SDS011;24074;49.254;6.702;2023-08-31T03:50:53;4.53;;;2.80;;
9950;SDS011;24074;49.254;6.702;2023-08-31T03:53:19;6.30;;;2.97;;
9950;SDS011;24074;49.254;6.702;2023-08-31T03:55:45;4.50;;;2.67;;
9950;SDS011;24074;49.254;6.702;2023-08-31T03:58:11;4.63;;;2.90;;
9950;SDS011;24074;49.254;6.702;2023-08-31T04:00:38;8.23;;;3.23;;
9950;SDS011;24074;49.254;6.702;2023-08-31T04:03:04;5.53;;;2.97;;
9950;SDS011;24074;49.254;6.702;2023-08-31T04:05:33;6.77;;;3.33;;
9950;SDS011;24074;49.254;6.702;2023-08-31T04:07:59;5.37;;;3.10;;
9950;SDS011;24074;49.254;6.702;2023-08-31T04:10:25;3.53;;;2.90;;
9950;SDS011;24074;49.254;6.702;2023-08-31T04:12:51;4.63;;;3.03;;
9950;SDS011;24074;49.254;6.702;2023-08-31T04:15:17;6.43;;;3.43;;
9950;SDS011;24074;49.254;6.702;2023-08-31T04:17:43;8.03;;;3.63;;
9950;SDS011;24074;49.254;6.702;2023-08-31T04:20:09;4.50;;;3.00;;
9950;SDS011;24074;49.254;6.702;2023-08-31T04:22:35;5.00;;;3.00;;
9950;SDS011;24074;49.254;6.702;2023-08-31T04:25:01;4.83;;;3.00;;
9950;SDS011;24074;49.254;6.702;2023-08-31T04:27:27;5.60;;;3.03;;
9950;SDS011;24074;49.254;6.702;2023-08-31T04:29:54;4.63;;;3.20;;
9950;SDS011;24074;49.254;6.702;2023-08-31T04:32:20;3.27;;;2.50;;
9950;SDS011;24074;49.254;6.702;2023-08-31T04:34:45;4.30;;;2.67;;
9950;SDS011;24074;49.254;6.702;2023-08-31T04:37:11;3.57;;;2.77;;
9950;SDS011;24074;49.254;6.702;2023-08-31T04:39:37;4.00;;;3.03;;
9950;SDS011;24074;49.254;6.702;2023-08-31T04:42:02;4.20;;;2.83;;
9950;SDS011;24074;49.254;6.702;2023-08-31T04:44:28;4.80;;;3.20;;
9950;SDS011;24074;49.254;6.702;2023-08-31T04:46:53;3.70;;;3.17;;
9950;SDS011;24074;49.254;6.702;2023-08-31T04:49:20;3.43;;;2.70;;
9950;SDS011;24074;49.254;6.702;2023-08-31T04:51:45;7.53;;;3.13;;
9950;SDS011;24074;49.254;6.702;2023-08-31T04:54:11;3.40;;;2.80;;
9950;SDS011;24074;49.254;6.702;2023-08-31T04:56:37;4.53;;;2.60;;
9950;SDS011;24074;49.254;6.702;2023-08-31T04:59:02;2.90;;;2.60;;
9950;SDS011;24074;49.254;6.702;2023-08-31T05:01:28;3.33;;;2.47;;
9950;SDS011;24074;49.254;6.702;2023-08-31T05:03:54;3.50;;;2.30;;
9950;SDS011;24074;49.254;6.702;2023-08-31T05:06:19;4.43;;;2.63;;
9950;SDS011;24074;49.254;6.702;2023-08-31T05:08:46;4.30;;;2.60;;
9950;SDS011;24074;49.254;6.702;2023-08-31T05:11:13;3.57;;;2.23;;
9950;SDS011;24074;49.254;6.702;2023-08-31T05:13:38;3.33;;;2.37;;
9950;SDS011;24074;49.254;6.702;2023-08-31T05:16:07;4.13;;;2.10;;
9950;SDS011;24074;49.254;6.702;2023-08-31T05:18:33;4.90;;;2.60;;
9950;SDS011;24074;49.254;6.702;2023-08-31T05:20:58;5.30;;;2.97;;
9950;SDS011;24074;49.254;6.702;2023-08-31T05:23:24;6.10;;;2.60;;
9950;SDS011;24074;49.254;6.702;2023-08-31T05:25:49;3.00;;;2.20;;
9950;SDS011;24074;49.254;6.702;2023-08-31T05:28:15;5.17;;;2.33;;
9950;SDS011;24074;49.254;6.702;2023-08-31T05:30:50;3.67;;;2.40;;
9950;SDS011;24074;49.254;6.702;2023-08-31T05:33:17;3.97;;;2.27;;
9950;SDS011;24074;49.254;6.702;2023-08-31T05:35:43;3.13;;;2.50;;
9950;SDS011;24074;49.254;6.702;2023-08-31T05:38:09;4.47;;;2.70;;
9950;SDS011;24074;49.254;6.702;2023-08-31T05:40:34;3.77;;;2.37;;
9950;SDS011;24074;49.254;6.702;2023-08-31T05:43:01;2.63;;;2.43;;
9950;SDS011;24074;49.254;6.702;2023-08-31T05:45:31;4.10;;;2.60;;
9950;SDS011;24074;49.254;6.702;2023-08-31T05:47:57;3.87;;;2.97;;
9950;SDS011;24074;49.254;6.702;2023-08-31T05:50:23;4.30;;;2.50;;
9950;SDS011;24074;49.254;6.702;2023-08-31T05:52:48;8.50;;;2.80;;
9950;SDS011;24074;49.254;6.702;2023-08-31T05:55:14;4.83;;;2.57;;
9950;SDS011;24074;49.254;6.702;2023-08-31T05:57:39;5.07;;;2.87;;
9950;SDS011;24074;49.254;6.702;2023-08-31T06:00:05;5.27;;;2.40;;
9950;SDS011;24074;49.254;6.702;2023-08-31T06:02:33;4.60;;;2.70;;
9950;SDS011;24074;49.254;6.702;2023-08-31T06:04:58;4.37;;;2.67;;
9950;SDS011;24074;49.254;6.702;2023-08-31T06:07:24;3.53;;;2.60;;
9950;SDS011;24074;49.254;6.702;2023-08-31T06:09:50;5.30;;;2.80;;
9950;SDS011;24074;49.254;6.702;2023-08-31T06:12:15;3.70;;;2.67;;
9950;SDS011;24074;49.254;6.702;2023-08-31T06:14:41;6.47;;;3.20;;
9950;SDS011;24074;49.254;6.702;2023-08-31T06:17:06;4.07;;;2.83;;
9950;SDS011;24074;49.254;6.702;2023-08-31T06:19:33;4.10;;;2.77;;
9950;SDS011;24074;49.254;6.702;2023-08-31T06:21:59;3.70;;;2.27;;
9950;SDS011;24074;49.254;6.702;2023-08-31T06:24:24;4.27;;;2.60;;
9950;SDS011;24074;49.254;6.702;2023-08-31T06:26:50;5.33;;;2.60;;
9950;SDS011;24074;49.254;6.702;2023-08-31T06:29:16;6.77;;;2.80;;
9950;SDS011;24074;49.254;6.702;2023-08-31T06:31:42;3.77;;;2.67;;
9950;SDS011;24074;49.254;6.702;2023-08-31T06:34:08;5.83;;;2.40;;
9950;SDS011;24074;49.254;6.702;2023-08-31T06:36:34;3.73;;;2.00;;
9950;SDS011;24074;49.254;6.702;2023-08-31T06:38:59;4.03;;;2.30;;
9950;SDS011;24074;49.254;6.702;2023-08-31T06:41:25;4.73;;;2.20;;
9950;SDS011;24074;49.254;6.702;2023-08-31T06:43:50;3.47;;;1.90;;
9950;SDS011;24074;49.254;6.702;2023-08-31T06:46:16;7.67;;;2.13;;
9950;SDS011;24074;49.254;6.702;2023-08-31T06:48:42;3.60;;;2.20;;
9950;SDS011;24074;49.254;6.702;2023-08-31T06:51:10;2.25;;;1.92;;
9950;SDS011;24074;49.254;6.702;2023-08-31T06:53:36;2.40;;;1.80;;
9950;SDS011;24074;49.254;6.702;2023-08-31T06:56:02;4.53;;;1.95;;
9950;SDS011;24074;49.254;6.702;2023-08-31T06:58:28;4.00;;;1.95;;
9950;SDS011;24074;49.254;6.702;2023-08-31T07:00:55;4.00;;;2.08;;
9950;SDS011;24074;49.254;6.702;2023-08-31T07:03:20;3.53;;;1.95;;
9950;SDS011;24074;49.254;6.702;2023-08-31T07:05:46;4.75;;;2.08;;
9950;SDS011;24074;49.254;6.702;2023-08-31T07:08:12;2.95;;;2.00;;
9950;SDS011;24074;49.254;6.702;2023-08-31T07:10:37;4.60;;;2.40;;
9950;SDS011;24074;49.254;6.702;2023-08-31T07:13:04;2.40;;;1.85;;
9950;SDS011;24074;49.254;6.702;2023-08-31T07:15:29;4.55;;;2.10;;
9950;SDS011;24074;49.254;6.702;2023-08-31T07:17:55;3.15;;;2.00;;
9950;SDS011;24074;49.254;6.702;2023-08-31T07:20:21;4.07;;;1.80;;
9950;SDS011;24074;49.254;6.702;2023-08-31T07:22:46;4.10;;;2.35;;
9950;SDS011;24074;49.254;6.702;2023-08-31T07:25:12;4.22;;;2.13;;
9950;SDS011;24074;49.254;6.702;2023-08-31T07:27:37;3.67;;;2.15;;
9950;SDS011;24074;49.254;6.702;2023-08-31T07:30:04;3.08;;;2.13;;
9950;SDS011;24074;49.254;6.702;2023-08-31T07:32:30;2.55;;;1.90;;
9950;SDS011;24074;49.254;6.702;2023-08-31T07:34:56;3.03;;;2.00;;
9950;SDS011;24074;49.254;6.702;2023-08-31T07:37:22;4.43;;;2.25;;
9950;SDS011;24074;49.254;6.702;2023-08-31T07:39:47;4.68;;;2.10;;
9950;SDS011;24074;49.254;6.702;2023-08-31T07:42:13;3.97;;;2.22;;
9950;SDS011;24074;49.254;6.702;2023-08-31T07:44:38;4.47;;;2.13;;
9950;SDS011;24074;49.254;6.702;2023-08-31T07:47:04;3.97;;;1.98;;
9950;SDS011;24074;49.254;6.702;2023-08-31T07:49:30;3.50;;;1.88;;
9950;SDS011;24074;49.254;6.702;2023-08-31T07:51:56;2.58;;;1.67;;
9950;SDS011;24074;49.254;6.702;2023-08-31T07:54:21;3.03;;;1.70;;
9950;SDS011;24074;49.254;6.702;2023-08-31T07:56:47;4.22;;;2.10;;
9950;SDS011;24074;49.254;6.702;2023-08-31T07:59:13;3.67;;;2.00;;
9950;SDS011;24074;49.254;6.702;2023-08-31T08:01:39;2.75;;;1.80;;
9950;SDS011;24074;49.254;6.702;2023-08-31T08:04:06;4.57;;;2.03;;
9950;SDS011;24074;49.254;6.702;2023-08-31T08:06:31;3.40;;;1.77;;
9950;SDS011;24074;49.254;6.702;2023-08-31T08:08:57;2.60;;;1.55;;
9950;SDS011;24074;49.254;6.702;2023-08-31T08:11:22;3.50;;;1.65;;
9950;SDS011;24074;49.254;6.702;2023-08-31T08:13:48;4.15;;;2.13;;
9950;SDS011;24074;49.254;6.702;2023-08-31T08:16:14;2.03;;;1.70;;
9950;SDS011;24074;49.254;6.702;2023-08-31T08:18:40;3.67;;;1.77;;
9950;SDS011;24074;49.254;6.702;2023-08-31T08:21:06;5.53;;;2.00;;
9950;SDS011;24074;49.254;6.702;2023-08-31T08:23:31;4.28;;;1.98;;
9950;SDS011;24074;49.254;6.702;2023-08-31T08:25:57;3.92;;;1.75;;
9950;SDS011;24074;49.254;6.702;2023-08-31T08:28:25;5.47;;;1.98;;
9950;SDS011;24074;49.254;6.702;2023-08-31T08:30:51;4.30;;;1.80;;
9950;SDS011;24074;49.254;6.702;2023-08-31T08:33:17;4.30;;;1.70;;
9950;SDS011;24074;49.254;6.702;2023-08-31T08:35:42;3.47;;;1.70;;
9950;SDS011;24074;49.254;6.702;2023-08-31T08:38:08;3.85;;;2.10;;
9950;SDS011;24074;49.254;6.702;2023-08-31T08:40:34;7.22;;;2.28;;
9950;SDS011;24074;49.254;6.702;2023-08-31T08:43:00;3.80;;;1.98;;
9950;SDS011;24074;49.254;6.702;2023-08-31T08:45:26;4.13;;;2.30;;
9950;SDS011;24074;49.254;6.702;2023-08-31T08:48:01;5.82;;;2.10;;
9950;SDS011;24074;49.254;6.702;2023-08-31T08:50:28;4.15;;;1.85;;
9950;SDS011;24074;49.254;6.702;2023-08-31T08:52:56;3.33;;;1.90;;
9950;SDS011;24074;49.254;6.702;2023-08-31T08:55:22;5.75;;;2.13;;
9950;SDS011;24074;49.254;6.702;2023-08-31T08:57:48;3.90;;;1.80;;
9950;SDS011;24074;49.254;6.702;2023-08-31T09:00:14;5.25;;;2.28;;
9950;SDS011;24074;49.254;6.702;2023-08-31T09:02:40;3.08;;;2.03;;
9950;SDS011;24074;49.254;6.702;2023-08-31T09:05:06;3.03;;;2.00;;
9950;SDS011;24074;49.254;6.702;2023-08-31T09:07:34;4.13;;;1.90;;
9950;SDS011;24074;49.254;6.702;2023-08-31T09:10:03;4.20;;;2.30;;
9950;SDS011;24074;49.254;6.702;2023-08-31T09:12:29;5.20;;;2.40;;
9950;SDS011;24074;49.254;6.702;2023-08-31T09:15:02;4.07;;;2.40;;
9950;SDS011;24074;49.254;6.702;2023-08-31T09:17:41;4.38;;;2.20;;
9950;SDS011;24074;49.254;6.702;2023-08-31T09:20:12;4.13;;;2.30;;
9950;SDS011;24074;49.254;6.702;2023-08-31T09:22:38;5.35;;;1.85;;
9950;SDS011;24074;49.254;6.702;2023-08-31T09:25:09;6.03;;;1.80;;
9950;SDS011;24074;49.254;6.702;2023-08-31T09:27:38;4.40;;;2.13;;
9950;SDS011;24074;49.254;6.702;2023-08-31T09:30:06;3.83;;;2.10;;
9950;SDS011;24074;49.254;6.702;2023-08-31T09:32:32;4.82;;;1.92;;
9950;SDS011;24074;49.254;6.702;2023-08-31T09:34:57;4.80;;;2.47;;
9950;SDS011;24074;49.254;6.702;2023-08-31T09:37:27;4.38;;;2.13;;
9950;SDS011;24074;49.254;6.702;2023-08-31T09:39:53;5.80;;;2.30;;
9950;SDS011;24074;49.254;6.702;2023-08-31T09:42:20;6.68;;;2.30;;
9950;SDS011;24074;49.254;6.702;2023-08-31T09:44:45;4.15;;;2.00;;
9950;SDS011;24074;49.254;6.702;2023-08-31T09:47:14;5.03;;;2.17;;
9950;SDS011;24074;49.254;6.702;2023-08-31T09:49:41;6.60;;;2.30;;
9950;SDS011;24074;49.254;6.702;2023-08-31T09:52:08;3.78;;;2.05;;
9950;SDS011;24074;49.254;6.702;2023-08-31T09:54:35;5.32;;;2.30;;
9950;SDS011;24074;49.254;6.702;2023-08-31T09:57:01;4.85;;;2.10;;
9950;SDS011;24074;49.254;6.702;2023-08-31T09:59:27;4.85;;;2.00;;
9950;SDS011;24074;49.254;6.702;2023-08-31T10:01:53;5.28;;;2.00;;
9950;SDS011;24074;49.254;6.702;2023-08-31T10:04:21;3.53;;;2.25;;
9950;SDS011;24074;49.254;6.702;2023-08-31T10:06:47;3.95;;;1.77;;
9950;SDS011;24074;49.254;6.702;2023-08-31T10:09:15;3.88;;;2.05;;
9950;SDS011;24074;49.254;6.702;2023-08-31T10:11:41;5.35;;;2.30;;
9950;SDS011;24074;49.254;6.702;2023-08-31T10:14:10;5.47;;;2.20;;
9950;SDS011;24074;49.254;6.702;2023-08-31T10:16:39;7.00;;;2.33;;
9950;SDS011;24074;49.254;6.702;2023-08-31T10:19:05;5.22;;;2.28;;
9950;SDS011;24074;49.254;6.702;2023-08-31T10:21:30;6.28;;;2.25;;
9950;SDS011;24074;49.254;6.702;2023-08-31T10:23:57;3.30;;;2.00;;
9950;SDS011;24074;49.254;6.702;2023-08-31T10:26:23;3.88;;;2.10;;
9950;SDS011;24074;49.254;6.702;2023-08-31T10:28:56;4.88;;;2.15;;
9950;SDS011;24074;49.254;6.702;2023-08-31T10:31:23;4.53;;;2.13;;
9950;SDS011;24074;49.254;6.702;2023-08-31T10:36:22;6.28;;;2.53;;
9950;SDS011;24074;49.254;6.702;2023-08-31T10:41:53;6.10;;;2.20;;
9950;SDS011;24074;49.254;6.702;2023-08-31T10:44:20;5.68;;;2.30;;
9950;SDS011;24074;49.254;6.702;2023-08-31T10:46:51;3.85;;;2.03;;
9950;SDS011;24074;49.254;6.702;2023-08-31T10:49:21;4.72;;;2.00;;
9950;SDS011;24074;49.254;6.702;2023-08-31T10:51:55;3.88;;;2.05;;
9950;SDS011;24074;49.254;6.702;2023-08-31T10:54:23;4.35;;;2.30;;
9950;SDS011;24074;49.254;6.702;2023-08-31T10:56:52;4.60;;;2.00;;
9950;SDS011;24074;49.254;6.702;2023-08-31T10:59:44;5.03;;;2.10;;
9950;SDS011;24074;49.254;6.702;2023-08-31T11:02:27;6.95;;;2.60;;
9950;SDS011;24074;49.254;6.702;2023-08-31T11:05:00;4.60;;;2.30;;
9950;SDS011;24074;49.254;6.702;2023-08-31T11:07:32;5.32;;;2.17;;
9950;SDS011;24074;49.254;6.702;2023-08-31T11:10:07;5.38;;;2.10;;
9950;SDS011;24074;49.254;6.702;2023-08-31T11:12:34;4.53;;;2.28;;
9950;SDS011;24074;49.254;6.702;2023-08-31T11:14:59;3.80;;;2.10;;
9950;SDS011;24074;49.254;6.702;2023-08-31T11:17:25;5.30;;;2.60;;
9950;SDS011;24074;49.254;6.702;2023-08-31T11:19:52;7.75;;;2.53;;
9950;SDS011;24074;49.254;6.702;2023-08-31T11:22:18;6.40;;;2.23;;
9950;SDS011;24074;49.254;6.702;2023-08-31T11:24:43;4.83;;;2.23;;
9950;SDS011;24074;49.254;6.702;2023-08-31T11:27:09;3.67;;;2.13;;
9950;SDS011;24074;49.254;6.702;2023-08-31T11:29:42;6.53;;;2.30;;
9950;SDS011;24074;49.254;6.702;2023-08-31T11:32:08;4.90;;;2.20;;
9950;SDS011;24074;49.254;6.702;2023-08-31T11:34:34;6.27;;;2.40;;
9950;SDS011;24074;49.254;6.702;2023-08-31T11:37:01;4.90;;;2.33;;
9950;SDS011;24074;49.254;6.702;2023-08-31T11:39:28;6.03;;;2.57;;
9950;SDS011;24074;49.254;6.702;2023-08-31T11:41:53;4.07;;;2.27;;
9950;SDS011;24074;49.254;6.702;2023-08-31T11:44:19;7.23;;;2.37;;
9950;SDS011;24074;49.254;6.702;2023-08-31T11:46:46;7.13;;;2.30;;
9950;SDS011;24074;49.254;6.702;2023-08-31T11:49:15;4.77;;;2.20;;
9950;SDS011;24074;49.254;6.702;2023-08-31T11:51:43;4.83;;;2.50;;
9950;SDS011;24074;49.254;6.702;2023-08-31T11:54:10;4.00;;;2.20;;
9950;SDS011;24074;49.254;6.702;2023-08-31T11:59:18;7.30;;;2.50;;
9950;SDS011;24074;49.254;6.702;2023-08-31T12:01:47;7.00;;;2.37;;
9950;SDS011;24074;49.254;6.702;2023-08-31T12:04:21;5.37;;;2.37;;
9950;SDS011;24074;49.254;6.702;2023-08-31T12:06:51;5.13;;;2.40;;
9950;SDS011;24074;49.254;6.702;2023-08-31T12:09:18;8.83;;;2.50;;
9950;SDS011;24074;49.254;6.702;2023-08-31T12:11:51;6.13;;;2.67;;
9950;SDS011;24074;49.254;6.702;2023-08-31T12:14:18;4.97;;;2.23;;
9950;SDS011;24074;49.254;6.702;2023-08-31T12:16:48;6.10;;;2.50;;
9950;SDS011;24074;49.254;6.702;2023-08-31T12:19:14;5.37;;;2.30;;
9950;SDS011;24074;49.254;6.702;2023-08-31T12:21:41;5.37;;;2.40;;
9950;SDS011;24074;49.254;6.702;2023-08-31T12:24:08;5.37;;;2.43;;
9950;SDS011;24074;49.254;6.702;2023-08-31T12:26:34;5.07;;;2.37;;
9950;SDS011;24074;49.254;6.702;2023-08-31T12:29:00;3.90;;;2.37;;
9950;SDS011;24074;49.254;6.702;2023-08-31T12:31:26;5.77;;;2.53;;
9950;SDS011;24074;49.254;6.702;2023-08-31T12:33:51;5.20;;;2.60;;
9950;SDS011;24074;49.254;6.702;2023-08-31T12:36:17;9.30;;;2.53;;
9950;SDS011;24074;49.254;6.702;2023-08-31T12:38:42;4.83;;;2.40;;
9950;SDS011;24074;49.254;6.702;2023-08-31T12:41:08;5.10;;;2.03;;
9950;SDS011;24074;49.254;6.702;2023-08-31T12:43:34;6.20;;;2.20;;
9950;SDS011;24074;49.254;6.702;2023-08-31T12:46:00;4.33;;;2.30;;
9950;SDS011;24074;49.254;6.702;2023-08-31T12:48:25;4.67;;;2.43;;
9950;SDS011;24074;49.254;6.702;2023-08-31T12:50:51;6.53;;;2.70;;
9950;SDS011;24074;49.254;6.702;2023-08-31T12:53:20;6.90;;;2.83;;
9950;SDS011;24074;49.254;6.702;2023-08-31T12:55:47;5.97;;;2.50;;
9950;SDS011;24074;49.254;6.702;2023-08-31T12:58:14;6.20;;;2.30;;
9950;SDS011;24074;49.254;6.702;2023-08-31T13:00:40;7.60;;;2.83;;
9950;SDS011;24074;49.254;6.702;2023-08-31T13:03:08;6.93;;;2.47;;
9950;SDS011;24074;49.254;6.702;2023-08-31T13:05:33;5.47;;;2.20;;
9950;SDS011;24074;49.254;6.702;2023-08-31T13:07:59;7.83;;;2.30;;
9950;SDS011;24074;49.254;6.702;2023-08-31T13:10:25;6.13;;;2.20;;
9950;SDS011;24074;49.254;6.702;2023-08-31T13:12:51;4.90;;;2.60;;
9950;SDS011;24074;49.254;6.702;2023-08-31T13:15:17;5.83;;;2.83;;
9950;SDS011;24074;49.254;6.702;2023-08-31T13:17:42;4.77;;;2.53;;
9950;SDS011;24074;49.254;6.702;2023-08-31T13:20:08;4.67;;;2.33;;
9950;SDS011;24074;49.254;6.702;2023-08-31T13:22:34;6.80;;;2.83;;
9950;SDS011;24074;49.254;6.702;2023-08-31T13:24:59;5.70;;;2.77;;
9950;SDS011;24074;49.254;6.702;2023-08-31T13:27:25;5.77;;;2.57;;
9950;SDS011;24074;49.254;6.702;2023-08-31T13:29:51;4.57;;;2.13;;
9950;SDS011;24074;49.254;6.702;2023-08-31T13:32:16;3.33;;;2.13;;
9950;SDS011;24074;49.254;6.702;2023-08-31T13:34:42;5.83;;;2.60;;
9950;SDS011;24074;49.254;6.702;2023-08-31T13:37:08;7.43;;;2.50;;
9950;SDS011;24074;49.254;6.702;2023-08-31T13:39:34;5.33;;;2.53;;
9950;SDS011;24074;49.254;6.702;2023-08-31T13:42:05;7.10;;;2.40;;
9950;SDS011;24074;49.254;6.702;2023-08-31T13:44:31;5.53;;;2.47;;
9950;SDS011;24074;49.254;6.702;2023-08-31T13:46:57;6.13;;;2.43;;
9950;SDS011;24074;49.254;6.702;2023-08-31T13:49:23;5.87;;;2.30;;
9950;SDS011;24074;49.254;6.702;2023-08-31T13:51:52;5.90;;;2.50;;
9950;SDS011;24074;49.254;6.702;2023-08-31T13:54:17;5.70;;;2.40;;
9950;SDS011;24074;49.254;6.702;2023-08-31T13:56:43;7.07;;;2.63;;
9950;SDS011;24074;49.254;6.702;2023-08-31T13:59:09;5.50;;;2.20;;
9950;SDS011;24074;49.254;6.702;2023-08-31T14:01:34;5.27;;;2.53;;
9950;SDS011;24074;49.254;6.702;2023-08-31T14:04:01;5.60;;;2.60;;
9950;SDS011;24074;49.254;6.702;2023-08-31T14:06:28;5.90;;;2.57;;
9950;SDS011;24074;49.254;6.702;2023-08-31T14:08:54;5.33;;;2.37;;
9950;SDS011;24074;49.254;6.702;2023-08-31T14:11:19;5.43;;;2.40;;
9950;SDS011;24074;49.254;6.702;2023-08-31T14:13:45;5.10;;;2.50;;
9950;SDS011;24074;49.254;6.702;2023-08-31T14:16:11;6.23;;;2.17;;
9950;SDS011;24074;49.254;6.702;2023-08-31T14:18:37;5.60;;;2.50;;
9950;SDS011;24074;49.254;6.702;2023-08-31T14:21:03;6.57;;;2.70;;
9950;SDS011;24074;49.254;6.702;2023-08-31T14:23:29;7.40;;;2.53;;
9950;SDS011;24074;49.254;6.702;2023-08-31T14:26:00;5.57;;;2.57;;
9950;SDS011;24074;49.254;6.702;2023-08-31T14:28:28;5.87;;;2.43;;
9950;SDS011;24074;49.254;6.702;2023-08-31T14:30:53;4.57;;;2.30;;
9950;SDS011;24074;49.254;6.702;2023-08-31T14:33:19;4.93;;;2.73;;
9950;SDS011;24074;49.254;6.702;2023-08-31T14:35:44;4.77;;;2.77;;
9950;SDS011;24074;49.254;6.702;2023-08-31T14:38:10;4.90;;;2.60;;
9950;SDS011;24074;49.254;6.702;2023-08-31T14:40:40;7.30;;;2.63;;
9950;SDS011;24074;49.254;6.702;2023-08-31T14:43:06;7.40;;;2.30;;
9950;SDS011;24074;49.254;6.702;2023-08-31T14:45:32;6.43;;;2.70;;
9950;SDS011;24074;49.254;6.702;2023-08-31T14:47:57;6.73;;;2.87;;
9950;SDS011;24074;49.254;6.702;2023-08-31T14:50:23;6.73;;;2.57;;
9950;SDS011;24074;49.254;6.702;2023-08-31T14:52:48;6.13;;;2.83;;
9950;SDS011;24074;49.254;6.702;2023-08-31T14:55:14;5.30;;;2.60;;
9950;SDS011;24074;49.254;6.702;2023-08-31T14:57:40;7.90;;;2.83;;
9950;SDS011;24074;49.254;6.702;2023-08-31T15:00:07;7.03;;;2.40;;
9950;SDS011;24074;49.254;6.702;2023-08-31T15:02:33;5.87;;;2.53;;
9950;SDS011;24074;49.254;6.702;2023-08-31T15:04:59;5.30;;;2.50;;
9950;SDS011;24074;49.254;6.702;2023-08-31T15:07:25;7.43;;;2.73;;
9950;SDS011;24074;49.254;6.702;2023-08-31T15:09:51;5.60;;;2.43;;
9950;SDS011;24074;49.254;6.702;2023-08-31T15:12:23;6.47;;;2.73;;